Time;durP1;ratioP1;P1;durP2;ratioP2;P2;SDS_P1;SDS_P2;PMS_P1;PMS_P2;Temp;Humidity;BMP_temperature;BMP_pressure;BME280_temperature;BME280_humidity;BME280_pressure;Samples;Min_cycle;Max_cycle;Signal;HPM_P1;HPM_P2
2023/08/26 00:02:19;;;;;;;3.92;2.90;;;23.20;99.90;;;;;;7387527;19;20609;-80
2023/08/26 00:04:46;;;;;;;4.35;3.45;;;22.90;99.90;;;;;;7384390;19;20193;-79
2023/08/26 00:07:12;;;;;;;4.25;3.70;;;22.90;99.90;;;;;;7385739;19;20162;-79
2023/08/26 00:09:38;;;;;;;4.07;3.20;;;23.00;99.90;;;;;;7387921;19;20593;-79
2023/08/26 00:12:04;;;;;;;5.30;3.50;;;23.00;99.90;;;;;;7385201;19;20218;-79
2023/08/26 00:14:29;;;;;;;4.15;3.30;;;22.90;99.90;;;;;;7386017;19;20142;-79
2023/08/26 00:16:57;;;;;;;5.97;3.67;;;22.80;99.90;;;;;;7387074;19;20130;-79
2023/08/26 00:19:24;;;;;;;5.53;3.22;;;22.80;99.90;;;;;;7386639;19;20158;-81
2023/08/26 00:21:50;;;;;;;5.55;4.00;;;22.80;99.90;;;;;;7387482;19;20135;-79
2023/08/26 00:24:17;;;;;;;3.88;3.13;;;22.90;99.90;;;;;;7383802;19;20487;-78
2023/08/26 00:26:43;;;;;;;4.38;3.22;;;22.70;99.90;;;;;;7385783;19;20150;-79
2023/08/26 00:29:08;;;;;;;4.50;3.30;;;22.70;99.90;;;;;;7386395;19;20161;-79
2023/08/26 00:31:34;;;;;;;6.72;3.70;;;22.50;99.90;;;;;;7386123;19;20218;-79
2023/08/26 00:34:03;;;;;;;4.88;3.42;;;22.70;99.90;;;;;;7385966;19;20159;-79
2023/08/26 00:36:30;;;;;;;5.35;3.75;;;22.80;99.90;;;;;;7388197;19;20210;-79
2023/08/26 00:38:57;;;;;;;6.68;3.72;;;22.70;99.90;;;;;;7393066;19;20638;-79
2023/08/26 00:41:23;;;;;;;6.55;3.42;;;22.70;99.90;;;;;;7391322;19;20484;-78
2023/08/26 00:43:48;;;;;;;3.75;3.10;;;22.70;99.90;;;;;;7390209;19;20253;-79
2023/08/26 00:46:14;;;;;;;5.25;3.72;;;22.50;99.90;;;;;;7393117;19;20141;-79
2023/08/26 00:48:41;;;;;;;8.13;3.17;;;22.50;99.90;;;;;;7392344;19;20167;-79
2023/08/26 00:51:07;;;;;;;4.07;3.70;;;22.60;99.90;;;;;;7392312;19;20138;-79
2023/08/26 00:53:33;;;;;;;4.85;3.50;;;22.50;99.90;;;;;;7394099;19;20143;-79
2023/08/26 00:56:00;;;;;;;5.25;3.30;;;22.60;99.90;;;;;;7391490;19;20135;-78
2023/08/26 00:58:27;;;;;;;3.60;3.20;;;22.60;99.90;;;;;;7395307;19;20207;-79
2023/08/26 01:00:54;;;;;;;6.13;3.33;;;22.60;99.90;;;;;;7392518;19;20455;-79
2023/08/26 01:03:20;;;;;;;3.42;3.13;;;22.70;99.90;;;;;;7391858;19;20146;-79
2023/08/26 01:05:46;;;;;;;5.25;3.47;;;22.70;99.90;;;;;;7392514;19;20135;-79
2023/08/26 01:08:13;;;;;;;4.32;3.00;;;22.70;99.90;;;;;;7392156;19;20130;-79
2023/08/26 01:10:59;;;;;;;6.35;3.38;;;22.70;99.90;;;;;;7392826;19;20161;-80
2023/08/26 01:13:51;;;;;;;4.05;3.20;;;22.60;99.90;;;;;;7392288;19;20214;-78
2023/08/26 01:16:19;;;;;;;4.57;3.30;;;22.60;99.90;;;;;;7391150;19;20135;-79
2023/08/26 01:18:45;;;;;;;4.30;3.08;;;22.60;99.90;;;;;;7392201;19;20159;-80
2023/08/26 01:21:13;;;;;;;5.53;3.40;;;22.60;99.90;;;;;;7394288;19;20139;-81
2023/08/26 01:23:43;;;;;;;4.50;3.10;;;22.60;99.90;;;;;;7387466;19;20127;-82
2023/08/26 01:26:09;;;;;;;7.50;3.30;;;22.50;99.90;;;;;;7391443;19;20145;-80
2023/08/26 01:28:34;;;;;;;9.45;3.90;;;22.50;99.90;;;;;;7388839;19;20210;-78
2023/08/26 01:31:13;;;;;;;8.88;3.88;;;22.50;99.90;;;;;;7391198;19;20126;-78
2023/08/26 01:33:50;;;;;;;7.57;3.80;;;22.30;99.90;;;;;;7391126;19;20189;-77
2023/08/26 01:36:19;;;;;;;3.72;2.55;;;21.90;99.90;;;;;;7391709;19;20561;-77
2023/08/26 01:38:46;;;;;;;3.75;2.80;;;21.70;99.90;;;;;;7389206;19;20697;-77
2023/08/26 01:41:19;;;;;;;3.45;2.92;;;21.60;99.90;;;;;;7390380;19;20166;-78
2023/08/26 01:43:47;;;;;;;5.10;2.40;;;21.60;99.90;;;;;;7387555;19;20134;-78
2023/08/26 01:46:14;;;;;;;5.60;2.78;;;21.60;99.90;;;;;;7391238;19;20213;-79
2023/08/26 01:48:40;;;;;;;5.60;2.78;;;21.60;99.90;;;;;;7390642;19;20154;-79
2023/08/26 01:51:06;;;;;;;5.13;2.88;;;21.60;99.90;;;;;;7391774;19;20158;-78
2023/08/26 01:53:31;;;;;;;4.90;2.65;;;21.60;99.90;;;;;;7390188;19;20758;-80
2023/08/26 01:55:57;;;;;;;4.70;2.50;;;21.50;99.90;;;;;;7389782;19;20131;-79
2023/08/26 01:58:23;;;;;;;5.20;2.60;;;21.50;99.90;;;;;;7392307;19;20166;-80
2023/08/26 02:00:49;;;;;;;3.63;2.40;;;21.70;99.90;;;;;;7389872;19;20596;-80
2023/08/26 02:03:15;;;;;;;2.50;2.30;;;21.70;99.90;;;;;;7389965;19;20147;-80
2023/08/26 02:05:40;;;;;;;5.65;2.50;;;21.70;99.90;;;;;;7390658;19;20205;-80
2023/08/26 02:08:06;;;;;;;3.70;2.08;;;21.80;99.90;;;;;;7389476;19;20242;-81
2023/08/26 02:10:32;;;;;;;3.58;2.20;;;21.70;99.90;;;;;;7389942;19;20141;-80
2023/08/26 02:12:57;;;;;;;3.25;2.13;;;21.70;99.90;;;;;;7389608;19;20170;-81
2023/08/26 02:15:23;;;;;;;3.97;2.33;;;21.80;99.90;;;;;;7391243;19;20601;-81
2023/08/26 02:17:49;;;;;;;2.40;2.05;;;21.90;99.90;;;;;;7383244;19;22669;-80
2023/08/26 02:20:15;;;;;;;3.92;2.28;;;21.90;99.90;;;;;;7392845;19;20146;-81
2023/08/26 02:22:40;;;;;;;3.28;2.20;;;21.90;99.90;;;;;;7388488;19;20533;-80
2023/08/26 02:25:07;;;;;;;2.75;2.20;;;21.90;99.90;;;;;;7387859;19;20153;-80
2023/08/26 02:27:33;;;;;;;5.22;2.45;;;22.00;99.90;;;;;;7388469;19;20499;-80
2023/08/26 02:29:59;;;;;;;3.40;2.35;;;22.00;99.90;;;;;;7390604;19;20139;-81
2023/08/26 02:32:25;;;;;;;4.20;2.05;;;22.00;99.90;;;;;;7391848;19;20153;-80
2023/08/26 02:34:50;;;;;;;2.95;2.28;;;22.10;99.90;;;;;;7388862;19;20142;-80
2023/08/26 02:37:16;;;;;;;3.53;2.17;;;22.10;99.90;;;;;;7391052;19;20134;-80
2023/08/26 02:39:42;;;;;;;3.40;2.30;;;22.10;99.90;;;;;;7388766;19;20127;-79
2023/08/26 02:42:08;;;;;;;3.05;2.25;;;22.10;99.90;;;;;;7390304;19;20537;-80
2023/08/26 02:44:33;;;;;;;2.80;2.45;;;22.20;99.90;;;;;;7389173;19;21229;-80
2023/08/26 02:47:01;;;;;;;2.10;1.90;;;22.20;99.90;;;;;;7386389;19;20324;-81
2023/08/26 02:49:27;;;;;;;5.13;2.25;;;22.10;99.90;;;;;;7390791;19;20127;-80
2023/08/26 02:51:53;;;;;;;3.08;2.10;;;22.20;99.90;;;;;;7388508;19;20255;-79
2023/08/26 02:54:18;;;;;;;3.08;2.05;;;22.20;99.90;;;;;;7389349;19;20146;-79
2023/08/26 02:56:44;;;;;;;3.50;2.42;;;22.30;99.90;;;;;;7388775;19;20343;-79
2023/08/26 02:59:10;;;;;;;4.65;2.45;;;22.30;99.90;;;;;;7388642;19;20150;-79
2023/08/26 03:01:37;;;;;;;3.70;2.25;;;22.30;99.90;;;;;;7388680;19;20142;-79
2023/08/26 03:04:03;;;;;;;2.88;2.10;;;22.30;99.90;;;;;;7388312;19;20541;-79
2023/08/26 03:06:30;;;;;;;3.00;2.33;;;22.20;99.90;;;;;;7389664;19;20163;-79
2023/08/26 03:08:56;;;;;;;3.67;2.10;;;22.20;99.90;;;;;;7389273;19;20158;-79
2023/08/26 03:11:22;;;;;;;4.60;2.40;;;22.30;99.90;;;;;;7390437;19;20149;-79
2023/08/26 03:13:49;;;;;;;2.38;2.17;;;22.20;99.90;;;;;;7388879;19;20599;-79
2023/08/26 03:16:15;;;;;;;4.28;2.38;;;22.10;99.90;;;;;;7388513;19;20170;-79
2023/08/26 03:18:41;;;;;;;1.92;1.70;;;22.20;99.90;;;;;;7389707;19;20130;-79
2023/08/26 03:21:08;;;;;;;2.67;2.10;;;22.10;99.90;;;;;;7386577;19;20535;-79
2023/08/26 03:23:37;;;;;;;6.32;2.60;;;22.10;99.90;;;;;;7390478;19;20152;-80
2023/08/26 03:26:04;;;;;;;3.10;2.22;;;22.10;99.90;;;;;;7387460;19;20619;-82
2023/08/26 03:28:30;;;;;;;2.30;1.90;;;22.10;99.90;;;;;;7388037;19;20150;-79
2023/08/26 03:31:05;;;;;;;2.10;1.83;;;22.20;99.90;;;;;;7388290;19;20135;-79
2023/08/26 03:33:33;;;;;;;3.20;2.50;;;22.10;99.90;;;;;;7387564;19;20149;-79
2023/08/26 03:36:03;;;;;;;3.92;2.35;;;22.20;99.90;;;;;;7388599;19;20145;-80
2023/08/26 03:38:29;;;;;;;4.05;2.03;;;22.20;99.90;;;;;;7387727;19;20137;-79
2023/08/26 03:40:54;;;;;;;2.63;2.40;;;22.20;99.90;;;;;;7388583;19;20154;-79
2023/08/26 03:43:21;;;;;;;4.80;2.15;;;22.20;99.90;;;;;;7386022;19;20133;-80
2023/08/26 03:45:47;;;;;;;2.35;1.90;;;22.20;99.90;;;;;;7389236;19;20144;-79
2023/08/26 03:48:12;;;;;;;2.20;2.00;;;22.20;99.90;;;;;;7388872;19;20203;-79
2023/08/26 03:50:38;;;;;;;3.92;2.30;;;22.20;99.90;;;;;;7388058;19;20130;-80
2023/08/26 03:53:04;;;;;;;5.07;2.13;;;22.20;99.90;;;;;;7387675;19;20231;-79
2023/08/26 03:55:36;;;;;;;3.08;2.45;;;22.20;99.90;;;;;;7388142;19;20603;-79
2023/08/26 03:58:02;;;;;;;3.53;2.30;;;22.20;99.90;;;;;;7387692;19;20177;-79
2023/08/26 04:00:27;;;;;;;2.22;2.05;;;22.20;99.90;;;;;;7387136;19;20214;-79
2023/08/26 04:02:53;;;;;;;4.65;2.20;;;22.20;99.90;;;;;;7385269;19;20496;-79
2023/08/26 04:05:19;;;;;;;3.08;2.50;;;22.10;99.90;;;;;;7384098;19;20143;-79
2023/08/26 04:07:44;;;;;;;3.40;2.28;;;22.00;99.90;;;;;;7387032;19;20150;-79
2023/08/26 04:10:10;;;;;;;3.45;2.15;;;22.00;99.90;;;;;;7385387;19;20156;-79
2023/08/26 04:12:36;;;;;;;2.50;2.28;;;22.00;99.90;;;;;;7392872;19;20131;-80
2023/08/26 04:15:04;;;;;;;6.18;2.45;;;22.00;99.90;;;;;;7391891;19;20131;-79
2023/08/26 04:17:30;;;;;;;2.83;2.13;;;22.10;99.90;;;;;;7393859;19;20168;-79
2023/08/26 04:19:55;;;;;;;3.50;2.40;;;22.00;99.90;;;;;;7392581;19;20153;-79
2023/08/26 04:22:21;;;;;;;3.35;2.35;;;22.10;99.90;;;;;;7393385;19;20148;-79
2023/08/26 04:24:47;;;;;;;6.00;2.40;;;22.10;99.90;;;;;;7392218;19;20143;-80
2023/08/26 04:27:13;;;;;;;4.63;2.17;;;22.10;99.90;;;;;;7393220;19;20146;-80
2023/08/26 04:29:38;;;;;;;2.40;2.20;;;22.00;99.90;;;;;;7393960;19;20165;-79
2023/08/26 04:32:04;;;;;;;3.80;2.42;;;22.10;99.90;;;;;;7393805;19;20599;-80
2023/08/26 04:34:30;;;;;;;5.07;2.38;;;22.10;99.90;;;;;;7394458;19;20186;-80
2023/08/26 04:36:56;;;;;;;4.47;2.28;;;22.00;99.90;;;;;;7393875;19;20146;-80
2023/08/26 04:39:22;;;;;;;2.30;2.08;;;22.00;99.90;;;;;;7394457;19;20131;-80
2023/08/26 04:41:48;;;;;;;3.33;2.35;;;22.00;99.90;;;;;;7393415;19;20131;-79
2023/08/26 04:44:17;;;;;;;4.88;2.55;;;22.00;99.90;;;;;;7390817;19;20140;-80
2023/08/26 04:46:43;;;;;;;3.22;2.60;;;22.10;99.90;;;;;;7394192;19;20162;-80
2023/08/26 04:49:09;;;;;;;2.75;2.47;;;22.10;99.90;;;;;;7391781;19;20138;-79
2023/08/26 04:51:35;;;;;;;6.95;2.78;;;22.10;99.90;;;;;;7394210;19;20776;-80
2023/08/26 04:54:00;;;;;;;5.03;2.28;;;22.10;99.90;;;;;;7392416;19;20622;-80
2023/08/26 04:56:27;;;;;;;4.57;2.25;;;22.00;99.90;;;;;;7392429;19;20144;-80
2023/08/26 04:58:53;;;;;;;5.43;2.95;;;22.00;99.90;;;;;;7392955;19;20163;-79
2023/08/26 05:01:20;;;;;;;3.03;2.70;;;22.00;99.90;;;;;;7393289;19;20194;-80
2023/08/26 05:03:45;;;;;;;4.78;2.40;;;22.00;99.90;;;;;;7390729;19;20177;-80
2023/08/26 05:06:11;;;;;;;5.43;2.30;;;21.90;99.90;;;;;;7393995;19;20150;-81
2023/08/26 05:08:37;;;;;;;5.63;2.28;;;21.90;99.90;;;;;;7392427;19;20190;-80
2023/08/26 05:11:05;;;;;;;5.13;2.65;;;22.00;99.90;;;;;;7394478;19;20152;-82
2023/08/26 05:13:31;;;;;;;3.25;2.60;;;22.10;99.90;;;;;;7394766;19;20138;-81
2023/08/26 05:15:57;;;;;;;4.75;3.15;;;22.00;99.90;;;;;;7393759;19;20152;-83
2023/08/26 05:18:23;;;;;;;6.32;2.53;;;21.80;99.90;;;;;;7394731;19;20512;-82
2023/08/26 05:20:49;;;;;;;3.35;2.42;;;21.80;99.90;;;;;;7393455;19;20130;-84
2023/08/26 05:23:15;;;;;;;3.17;2.30;;;21.70;99.90;;;;;;7391985;19;20664;-82
2023/08/26 05:25:45;;;;;;;3.47;2.50;;;21.80;99.90;;;;;;7392578;19;20134;-81
2023/08/26 05:28:11;;;;;;;3.55;2.38;;;21.90;99.90;;;;;;7394612;19;20221;-81
2023/08/26 05:30:37;;;;;;;3.60;2.40;;;22.00;99.90;;;;;;7393911;19;20134;-82
2023/08/26 05:33:02;;;;;;;3.92;2.42;;;21.80;99.90;;;;;;7394104;19;20154;-82
2023/08/26 05:35:28;;;;;;;4.43;2.13;;;21.90;99.90;;;;;;7393496;19;20157;-82
2023/08/26 05:37:54;;;;;;;4.40;2.15;;;21.80;99.90;;;;;;7392714;19;20166;-81
2023/08/26 05:40:26;;;;;;;3.55;2.05;;;21.80;99.90;;;;;;7394107;19;20151;-81
2023/08/26 05:42:54;;;;;;;3.78;2.53;;;21.90;99.90;;;;;;7391349;19;20151;-82
2023/08/26 05:45:20;;;;;;;5.80;2.65;;;21.90;99.90;;;;;;7393181;19;20587;-82
2023/08/26 05:47:45;;;;;;;4.47;2.50;;;21.90;99.90;;;;;;7391407;19;20137;-81
2023/08/26 05:50:11;;;;;;;3.47;2.40;;;21.90;99.90;;;;;;7392299;19;20145;-81
2023/08/26 05:52:37;;;;;;;3.70;2.42;;;21.80;99.90;;;;;;7392899;19;20579;-81
2023/08/26 05:55:03;;;;;;;5.65;2.53;;;21.80;99.90;;;;;;7392069;19;20198;-81
2023/08/26 05:57:28;;;;;;;5.03;2.80;;;21.80;99.90;;;;;;7393941;19;20147;-80
2023/08/26 05:59:54;;;;;;;4.38;2.63;;;21.80;99.90;;;;;;7390853;19;20146;-79
2023/08/26 06:02:20;;;;;;;6.65;3.00;;;21.80;99.90;;;;;;7390096;19;20123;-79
2023/08/26 06:04:46;;;;;;;3.30;2.47;;;22.00;99.90;;;;;;7388996;19;20220;-78
2023/08/26 06:07:12;;;;;;;7.78;2.60;;;22.00;99.90;;;;;;7389115;19;20135;-79
2023/08/26 06:09:38;;;;;;;6.15;2.53;;;22.00;99.90;;;;;;7390472;19;20131;-79
2023/08/26 06:12:03;;;;;;;4.78;2.65;;;22.10;99.90;;;;;;7392396;19;20246;-78
2023/08/26 06:14:29;;;;;;;4.53;2.38;;;22.10;99.90;;;;;;7390246;19;20157;-79
2023/08/26 06:16:55;;;;;;;5.82;2.70;;;22.10;99.90;;;;;;7390040;19;20142;-79
2023/08/26 06:19:21;;;;;;;3.22;2.28;;;22.10;99.90;;;;;;7390490;19;20135;-79
2023/08/26 06:21:46;;;;;;;3.72;2.45;;;22.00;99.90;;;;;;7390788;19;20532;-78
2023/08/26 06:24:12;;;;;;;3.40;2.28;;;22.10;99.90;;;;;;7386334;19;20253;-77
2023/08/26 06:26:38;;;;;;;6.13;2.90;;;22.10;99.90;;;;;;7389999;19;20130;-79
2023/08/26 06:29:04;;;;;;;3.70;2.53;;;22.10;99.90;;;;;;7389049;19;20119;-79
2023/08/26 06:31:29;;;;;;;7.38;2.63;;;22.10;99.90;;;;;;7389774;19;20586;-79
2023/08/26 06:33:55;;;;;;;4.47;2.58;;;22.20;99.90;;;;;;7385366;19;20150;-77
2023/08/26 06:36:21;;;;;;;6.47;2.65;;;21.80;99.90;;;;;;7388225;19;20161;-82
2023/08/26 06:38:47;;;;;;;4.50;2.55;;;22.00;99.90;;;;;;7388570;19;20139;-82
2023/08/26 06:41:12;;;;;;;3.38;2.65;;;22.10;99.90;;;;;;7389703;19;20130;-80
2023/08/26 06:43:38;;;;;;;6.05;2.92;;;22.20;99.90;;;;;;7386199;19;20580;-82
2023/08/26 06:46:04;;;;;;;3.65;2.55;;;22.20;99.90;;;;;;7385424;19;20131;-79
2023/08/26 06:48:29;;;;;;;3.53;2.08;;;22.20;99.90;;;;;;7387604;19;20441;-76
2023/08/26 06:50:57;;;;;;;4.20;3.10;;;22.40;99.90;;;;;;7387828;19;20492;-78
2023/08/26 06:53:23;;;;;;;5.40;2.72;;;22.40;99.90;;;;;;7387434;19;20140;-78
2023/08/26 06:55:53;;;;;;;5.78;2.97;;;22.40;99.90;;;;;;7387271;19;20142;-78
2023/08/26 06:58:20;;;;;;;5.18;2.63;;;22.30;99.90;;;;;;7387486;19;20230;-79
2023/08/26 07:00:47;;;;;;;5.05;2.60;;;22.40;99.90;;;;;;7390731;19;20126;-78
2023/08/26 07:03:12;;;;;;;5.15;2.80;;;22.30;99.90;;;;;;7386841;19;20153;-77
2023/08/26 07:05:43;;;;;;;2.80;2.40;;;22.30;99.90;;;;;;7389695;19;20209;-83
2023/08/26 07:08:09;;;;;;;4.78;2.65;;;22.30;99.90;;;;;;7392152;19;20134;-83
2023/08/26 07:10:34;;;;;;;4.72;2.60;;;22.30;99.90;;;;;;7389082;19;20143;-83
2023/08/26 07:13:00;;;;;;;3.63;2.42;;;22.30;99.90;;;;;;7390182;19;20468;-82
2023/08/26 07:15:26;;;;;;;6.75;2.53;;;22.30;99.90;;;;;;7389639;19;20625;-85
2023/08/26 07:17:53;;;;;;;2.90;2.17;;;22.40;99.90;;;;;;7390773;19;20139;-84
2023/08/26 07:20:21;;;;;;;3.95;2.58;;;22.50;99.90;;;;;;7387672;19;20149;-83
2023/08/26 07:22:46;;;;;;;3.28;2.42;;;22.40;99.90;;;;;;7379785;19;20139;-82
2023/08/26 07:25:12;;;;;;;3.88;2.50;;;22.50;99.90;;;;;;7381621;19;20142;-80
2023/08/26 07:27:39;;;;;;;2.85;2.40;;;22.50;99.90;;;;;;7385831;19;20139;-80
2023/08/26 07:30:05;;;;;;;2.72;2.42;;;22.50;99.90;;;;;;7389675;19;20214;-76
2023/08/26 07:32:31;;;;;;;4.90;2.47;;;22.40;99.90;;;;;;7389636;19;20134;-78
2023/08/26 07:35:00;;;;;;;4.57;2.65;;;22.40;99.90;;;;;;7380975;19;20182;-78
2023/08/26 07:37:28;;;;;;;4.15;2.30;;;22.70;99.90;;;;;;7390669;19;20163;-83
2023/08/26 07:39:54;;;;;;;4.28;2.47;;;22.90;99.90;;;;;;7388837;19;20638;-84
2023/08/26 07:42:23;;;;;;;4.20;2.45;;;23.00;99.90;;;;;;7391163;19;20161;-83
2023/08/26 07:44:48;;;;;;;3.53;2.80;;;23.00;99.90;;;;;;7391414;19;20166;-83
2023/08/26 07:47:14;;;;;;;4.53;2.40;;;23.10;99.90;;;;;;7405298;19;20138;-82
2023/08/26 07:49:40;;;;;;;3.88;2.42;;;23.40;99.90;;;;;;7404457;19;20149;-82
2023/08/26 07:52:06;;;;;;;4.15;2.42;;;23.70;99.90;;;;;;7405122;19;20141;-82
2023/08/26 07:54:31;;;;;;;4.25;2.50;;;23.60;99.90;;;;;;7402974;19;20154;-81
2023/08/26 07:56:57;;;;;;;6.07;2.95;;;23.50;99.90;;;;;;7402414;19;20131;-82
2023/08/26 07:59:23;;;;;;;4.22;2.65;;;23.30;99.90;;;;;;7403148;19;20160;-81
2023/08/26 08:01:49;;;;;;;3.97;2.47;;;23.10;99.90;;;;;;7404124;19;20153;-81
2023/08/26 08:04:15;;;;;;;5.05;2.50;;;23.00;99.90;;;;;;7402378;19;20149;-82
2023/08/26 08:06:40;;;;;;;7.82;2.60;;;23.10;99.90;;;;;;7403298;19;20171;-82
2023/08/26 08:09:06;;;;;;;4.97;2.40;;;23.10;99.90;;;;;;7400172;19;20603;-81
2023/08/26 08:11:32;;;;;;;5.15;2.30;;;23.10;99.90;;;;;;7398417;19;20870;-82
2023/08/26 08:13:57;;;;;;;4.25;2.70;;;23.10;99.90;;;;;;7400963;19;20597;-83
2023/08/26 08:16:23;;;;;;;3.25;2.30;;;23.10;99.90;;;;;;7401921;19;20151;-81
2023/08/26 08:18:49;;;;;;;3.28;2.30;;;23.10;99.90;;;;;;7402073;19;20142;-82
2023/08/26 08:21:15;;;;;;;4.80;2.38;;;23.00;99.90;;;;;;7403520;19;20152;-81
2023/08/26 08:23:43;;;;;;;3.88;2.40;;;23.00;99.90;;;;;;7401089;19;20164;-83
2023/08/26 08:26:11;;;;;;;5.72;2.60;;;22.90;99.90;;;;;;7404985;19;20587;-84
2023/08/26 08:28:37;;;;;;;3.95;2.47;;;22.70;99.90;;;;;;7404997;19;20134;-86
2023/08/26 08:31:02;;;;;;;2.85;2.05;;;22.70;99.90;;;;;;7404945;19;20210;-81
2023/08/26 08:33:29;;;;;;;4.38;2.33;;;22.60;99.90;;;;;;7403584;19;20142;-86
2023/08/26 08:35:55;;;;;;;4.90;2.25;;;22.60;99.90;;;;;;7402974;19;20135;-84
2023/08/26 08:38:21;;;;;;;5.68;2.80;;;22.60;99.90;;;;;;7401485;19;20130;-86
2023/08/26 08:40:47;;;;;;;6.15;2.97;;;22.60;99.90;;;;;;7400713;19;20157;-78
2023/08/26 08:43:18;;;;;;;6.72;2.10;;;22.60;99.90;;;;;;7398367;19;20495;-80
2023/08/26 08:45:44;;;;;;;4.63;2.63;;;22.70;99.90;;;;;;7399310;19;20126;-82
2023/08/26 08:48:11;;;;;;;3.08;2.50;;;22.70;99.90;;;;;;7399877;19;20488;-84
2023/08/26 08:50:37;;;;;;;5.65;2.33;;;22.70;99.90;;;;;;7401105;19;20230;-81
2023/08/26 08:53:05;;;;;;;4.70;3.10;;;22.80;99.90;;;;;;7399390;19;20138;-80
2023/08/26 08:55:40;;;;;;;4.85;2.17;;;22.90;99.90;;;;;;7397210;19;20138;-80
2023/08/26 08:58:08;;;;;;;4.72;2.40;;;22.90;99.90;;;;;;7390921;19;20150;-74
2023/08/26 09:00:34;;;;;;;6.07;2.28;;;22.90;99.90;;;;;;7390447;19;20147;-75
2023/08/26 09:03:08;;;;;;;5.13;2.65;;;23.00;99.90;;;;;;7391770;19;20555;-76
2023/08/26 09:05:36;;;;;;;4.15;2.40;;;23.10;99.90;;;;;;7386708;19;20181;-76
2023/08/26 09:08:02;;;;;;;5.18;4.28;;;23.10;99.90;;;;;;7390774;19;20143;-76
2023/08/26 09:10:29;;;;;;;4.55;3.28;;;23.20;99.90;;;;;;7390288;19;20153;-77
2023/08/26 09:12:55;;;;;;;7.60;2.80;;;23.30;99.90;;;;;;7387366;19;20643;-76
2023/08/26 09:15:21;;;;;;;5.03;2.88;;;23.30;99.90;;;;;;7390790;19;20138;-76
2023/08/26 09:17:47;;;;;;;5.18;2.22;;;23.30;99.90;;;;;;7389207;19;20148;-76
2023/08/26 09:20:12;;;;;;;8.68;3.15;;;23.30;99.90;;;;;;7391304;19;20283;-76
2023/08/26 09:22:38;;;;;;;4.43;2.38;;;23.10;99.90;;;;;;7390160;19;20146;-76
2023/08/26 09:25:08;;;;;;;4.40;3.05;;;23.00;99.90;;;;;;7390127;19;20138;-77
2023/08/26 09:27:41;;;;;;;6.30;3.28;;;23.10;99.90;;;;;;7390360;19;20138;-77
2023/08/26 09:30:08;;;;;;;4.70;2.45;;;23.00;99.90;;;;;;7389860;19;20127;-77
2023/08/26 09:32:39;;;;;;;6.22;3.58;;;23.10;99.90;;;;;;7391741;19;20154;-77
2023/08/26 09:35:15;;;;;;;4.75;3.03;;;23.20;99.90;;;;;;7391150;19;20136;-77
2023/08/26 09:37:43;;;;;;;5.00;3.50;;;23.10;99.90;;;;;;7388634;19;20202;-77
2023/08/26 09:40:16;;;;;;;4.20;2.90;;;23.10;99.90;;;;;;7389216;19;20150;-77
2023/08/26 09:42:42;;;;;;;5.82;2.65;;;23.10;99.90;;;;;;7390547;19;20173;-76
2023/08/26 09:45:14;;;;;;;3.15;2.53;;;23.20;99.90;;;;;;7392480;19;20229;-76
2023/08/26 09:47:40;;;;;;;6.07;2.55;;;23.30;99.90;;;;;;7389566;19;20828;-77
2023/08/26 09:50:07;;;;;;;4.03;2.60;;;23.20;99.90;;;;;;7389585;19;20225;-77
2023/08/26 09:52:45;;;;;;;5.05;3.35;;;23.10;99.90;;;;;;7390872;19;20173;-76
2023/08/26 09:55:11;;;;;;;5.05;2.72;;;23.10;99.90;;;;;;7390277;19;20134;-76
2023/08/26 09:57:37;;;;;;;4.22;3.00;;;23.00;99.90;;;;;;7392385;19;20154;-76
2023/08/26 10:00:03;;;;;;;5.45;3.55;;;22.90;99.90;;;;;;7388398;19;20536;-77
2023/08/26 10:02:32;;;;;;;7.47;4.25;;;22.90;99.90;;;;;;7389226;19;20142;-77
2023/08/26 10:05:04;;;;;;;5.80;3.28;;;22.90;99.90;;;;;;7389223;19;20249;-76
2023/08/26 10:07:31;;;;;;;3.95;2.67;;;22.90;99.90;;;;;;7390013;19;20162;-76
2023/08/26 10:10:10;;;;;;;2.75;2.38;;;22.80;99.90;;;;;;7385522;19;20142;-77
2023/08/26 10:12:48;;;;;;;4.07;2.85;;;22.80;99.90;;;;;;7389665;19;20146;-77
2023/08/26 10:15:17;;;;;;;4.38;3.10;;;22.80;99.90;;;;;;7386350;19;20161;-76
2023/08/26 10:17:49;;;;;;;4.75;2.78;;;22.80;99.90;;;;;;7392422;19;20167;-78
2023/08/26 10:20:15;;;;;;;4.72;2.80;;;22.70;99.90;;;;;;7389744;19;20175;-76
2023/08/26 10:22:43;;;;;;;4.47;3.50;;;22.50;99.90;;;;;;7390559;19;20134;-77
2023/08/26 10:25:11;;;;;;;4.50;2.53;;;22.40;99.90;;;;;;7389732;19;20143;-77
2023/08/26 10:27:37;;;;;;;3.33;2.58;;;22.30;99.90;;;;;;7389467;19;20137;-76
2023/08/26 10:30:05;;;;;;;3.90;2.30;;;22.30;99.90;;;;;;7389529;19;20158;-77
2023/08/26 10:32:31;;;;;;;4.97;2.80;;;22.50;99.90;;;;;;7388596;19;20603;-76
2023/08/26 10:34:58;;;;;;;4.15;2.45;;;22.60;99.90;;;;;;7387569;19;20262;-77
2023/08/26 10:37:25;;;;;;;5.15;2.65;;;22.60;99.90;;;;;;7390911;19;20179;-78
2023/08/26 10:39:52;;;;;;;5.57;2.63;;;22.70;99.90;;;;;;7387039;19;20126;-77
2023/08/26 10:42:18;;;;;;;3.85;2.83;;;22.70;99.90;;;;;;7388121;19;20648;-77
2023/08/26 10:44:57;;;;;;;5.47;3.30;;;22.70;99.90;;;;;;7382468;19;20141;-76
2023/08/26 10:47:36;;;;;;;5.22;2.42;;;22.70;99.90;;;;;;7386306;19;20158;-76
2023/08/26 10:50:28;;;;;;;5.75;3.55;;;22.70;99.90;;;;;;7385879;19;20209;-76
2023/08/26 10:52:59;;;;;;;4.53;2.30;;;22.60;99.90;;;;;;7386073;19;20253;-76
2023/08/26 10:55:32;;;;;;;2.72;2.15;;;22.60;99.90;;;;;;7386551;19;20581;-75
2023/08/26 10:58:08;;;;;;;3.97;2.65;;;22.70;99.90;;;;;;7386703;19;20142;-75
2023/08/26 11:00:35;;;;;;;3.58;2.50;;;22.70;99.90;;;;;;7388073;19;20552;-76
2023/08/26 11:03:04;;;;;;;6.15;2.55;;;22.70;99.90;;;;;;7388623;19;20580;-76
2023/08/26 11:05:30;;;;;;;4.07;2.28;;;22.70;99.90;;;;;;7384082;19;20182;-76
2023/08/26 11:07:57;;;;;;;3.78;1.95;;;22.70;99.90;;;;;;7388459;19;20136;-76
2023/08/26 11:10:32;;;;;;;5.40;2.85;;;22.70;99.90;;;;;;7388186;19;20210;-76
2023/08/26 11:12:58;;;;;;;8.45;3.75;;;22.70;99.90;;;;;;7389288;19;20607;-76
2023/08/26 11:15:37;;;;;;;3.50;3.03;;;22.80;99.90;;;;;;7387431;19;20157;-77
2023/08/26 11:18:05;;;;;;;5.50;3.22;;;22.90;99.90;;;;;;7386090;19;20217;-76
2023/08/26 11:20:31;;;;;;;9.20;3.67;;;22.90;99.90;;;;;;7387702;19;20135;-76
2023/08/26 11:22:58;;;;;;;4.63;2.42;;;22.90;99.90;;;;;;7386478;19;20158;-77
2023/08/26 11:25:24;;;;;;;3.92;2.80;;;23.00;99.90;;;;;;7387975;19;20205;-76
2023/08/26 11:27:51;;;;;;;6.00;2.70;;;23.10;99.90;;;;;;7385820;19;20164;-75
2023/08/26 11:30:17;;;;;;;4.80;2.50;;;23.00;99.90;;;;;;7386381;19;20154;-77
2023/08/26 11:32:47;;;;;;;4.82;3.13;;;23.00;99.90;;;;;;7386565;19;20134;-75
2023/08/26 11:35:13;;;;;;;3.90;2.97;;;23.00;99.90;;;;;;7387402;19;20153;-75
2023/08/26 11:37:43;;;;;;;6.75;2.70;;;23.00;99.90;;;;;;7389551;19;20146;-75
2023/08/26 11:40:10;;;;;;;5.57;2.40;;;22.90;99.90;;;;;;7389613;19;20143;-76
2023/08/26 11:42:36;;;;;;;4.60;2.50;;;22.90;99.90;;;;;;7388137;19;20157;-76
2023/08/26 11:45:07;;;;;;;3.72;2.35;;;22.80;99.90;;;;;;7388334;19;20138;-77
2023/08/26 11:47:33;;;;;;;4.00;2.60;;;22.70;99.90;;;;;;7385558;19;20485;-77
2023/08/26 11:49:59;;;;;;;3.15;2.53;;;22.80;99.90;;;;;;7387769;19;20135;-76
2023/08/26 11:52:35;;;;;;;5.30;2.80;;;22.90;99.90;;;;;;7387121;19;20150;-76
2023/08/26 11:55:09;;;;;;;5.22;3.08;;;22.80;99.90;;;;;;7387749;19;20661;-76
2023/08/26 11:57:38;;;;;;;5.22;2.83;;;22.80;99.90;;;;;;7389749;19;20163;-77
2023/08/26 12:00:16;;;;;;;4.88;2.90;;;22.90;99.90;;;;;;7387181;19;20544;-75
2023/08/26 12:02:50;;;;;;;3.30;3.00;;;22.90;99.90;;;;;;7387011;19;20182;-75
2023/08/26 12:05:17;;;;;;;3.45;3.08;;;22.90;99.90;;;;;;7383460;19;20173;-76
2023/08/26 12:07:44;;;;;;;3.95;2.72;;;22.70;99.90;;;;;;7385842;19;20158;-75
2023/08/26 12:10:11;;;;;;;3.88;2.63;;;22.70;99.90;;;;;;7383489;19;20138;-77
2023/08/26 12:12:38;;;;;;;6.43;3.10;;;22.70;99.90;;;;;;7387130;19;20131;-75
2023/08/26 12:15:12;;;;;;;5.28;3.00;;;22.70;99.90;;;;;;7384439;19;20161;-76
2023/08/26 12:17:43;;;;;;;3.97;3.25;;;22.70;99.90;;;;;;7386560;19;20146;-77
2023/08/26 12:20:25;;;;;;;4.10;2.88;;;22.70;99.90;;;;;;7384803;19;20130;-76
2023/08/26 12:22:52;;;;;;;5.35;3.33;;;22.70;99.90;;;;;;7384718;19;20162;-77
2023/08/26 12:25:27;;;;;;;4.47;3.40;;;22.60;99.90;;;;;;7385796;19;20138;-76
2023/08/26 12:28:13;;;;;;;5.97;3.30;;;22.50;99.90;;;;;;7384738;19;20150;-76
2023/08/26 12:30:41;;;;;;;7.18;3.90;;;22.40;99.90;;;;;;7383895;19;20154;-76
2023/08/26 12:33:07;;;;;;;4.95;3.20;;;22.30;99.90;;;;;;7388385;19;20225;-76
2023/08/26 12:35:34;;;;;;;5.47;3.40;;;22.30;99.90;;;;;;7391883;19;20138;-76
2023/08/26 12:38:02;;;;;;;9.25;3.70;;;22.30;99.90;;;;;;7392257;19;20165;-77
2023/08/26 12:40:36;;;;;;;8.45;4.35;;;22.30;99.90;;;;;;7392687;19;20230;-77
2023/08/26 12:43:04;;;;;;;8.27;3.70;;;22.30;99.90;;;;;;7392551;19;20133;-76
2023/08/26 12:45:34;;;;;;;8.35;3.40;;;22.20;99.90;;;;;;7392081;19;20166;-75
2023/08/26 12:48:02;;;;;;;3.90;3.13;;;22.10;99.90;;;;;;7393551;19;20151;-76
2023/08/26 12:50:28;;;;;;;5.80;3.58;;;21.90;99.90;;;;;;7392375;19;20155;-75